sensor_id;sensor_type;location;lat;lon;timestamp;temperature;humidity
45785;DHT22;31489;51.404;5.474;2022-11-20T00:01:10;6.40;58.10
45785;DHT22;31489;51.404;5.474;2022-11-20T00:03:37;6.40;58.30
45785;DHT22;31489;51.404;5.474;2022-11-20T00:06:04;6.30;58.20
45785;DHT22;31489;51.404;5.474;2022-11-20T00:08:30;6.30;58.40
45785;DHT22;31489;51.404;5.474;2022-11-20T00:10:56;6.30;58.50
45785;DHT22;31489;51.404;5.474;2022-11-20T00:13:21;6.20;58.60
45785;DHT22;31489;51.404;5.474;2022-11-20T00:15:47;6.20;59.30
45785;DHT22;31489;51.404;5.474;2022-11-20T00:18:13;6.10;58.80
45785;DHT22;31489;51.404;5.474;2022-11-20T00:20:38;6.10;59.00
45785;DHT22;31489;51.404;5.474;2022-11-20T00:23:04;6.10;59.20
45785;DHT22;31489;51.404;5.474;2022-11-20T00:25:31;6.00;59.10
45785;DHT22;31489;51.404;5.474;2022-11-20T00:27:58;6.00;59.20
45785;DHT22;31489;51.404;5.474;2022-11-20T00:30:24;6.00;59.30
45785;DHT22;31489;51.404;5.474;2022-11-20T00:32:49;6.00;59.40
45785;DHT22;31489;51.404;5.474;2022-11-20T00:35:15;5.90;59.50
45785;DHT22;31489;51.404;5.474;2022-11-20T00:37:41;5.90;59.50
45785;DHT22;31489;51.404;5.474;2022-11-20T00:40:07;5.90;59.50
45785;DHT22;31489;51.404;5.474;2022-11-20T00:42:32;5.90;59.60
45785;DHT22;31489;51.404;5.474;2022-11-20T00:44:59;5.80;59.60
45785;DHT22;31489;51.404;5.474;2022-11-20T00:47:24;5.80;59.70
45785;DHT22;31489;51.404;5.474;2022-11-20T00:49:50;5.80;59.80
45785;DHT22;31489;51.404;5.474;2022-11-20T00:52:15;5.70;59.90
45785;DHT22;31489;51.404;5.474;2022-11-20T00:54:41;5.80;60.00
45785;DHT22;31489;51.404;5.474;2022-11-20T00:57:07;5.70;60.00
45785;DHT22;31489;51.404;5.474;2022-11-20T00:59:32;5.70;59.90
45785;DHT22;31489;51.404;5.474;2022-11-20T01:01:58;5.70;59.90
45785;DHT22;31489;51.404;5.474;2022-11-20T01:04:23;5.70;59.90
45785;DHT22;31489;51.404;5.474;2022-11-20T01:06:49;5.70;60.00
45785;DHT22;31489;51.404;5.474;2022-11-20T01:09:15;5.70;60.10
45785;DHT22;31489;51.404;5.474;2022-11-20T01:11:42;5.60;60.10
45785;DHT22;31489;51.404;5.474;2022-11-20T01:14:17;5.60;60.10
45785;DHT22;31489;51.404;5.474;2022-11-20T01:16:48;5.60;60.10
45785;DHT22;31489;51.404;5.474;2022-11-20T01:19:19;5.60;60.30
45785;DHT22;31489;51.404;5.474;2022-11-20T01:21:48;5.60;60.50
45785;DHT22;31489;51.404;5.474;2022-11-20T01:24:16;5.60;60.60
45785;DHT22;31489;51.404;5.474;2022-11-20T01:26:43;5.60;60.60
45785;DHT22;31489;51.404;5.474;2022-11-20T01:29:29;5.60;60.90
45785;DHT22;31489;51.404;5.474;2022-11-20T01:31:55;5.60;60.90
45785;DHT22;31489;51.404;5.474;2022-11-20T01:34:21;5.60;61.00
45785;DHT22;31489;51.404;5.474;2022-11-20T01:36:48;5.70;61.00
45785;DHT22;31489;51.404;5.474;2022-11-20T01:39:19;5.70;61.00
45785;DHT22;31489;51.404;5.474;2022-11-20T01:41:46;5.80;61.10
45785;DHT22;31489;51.404;5.474;2022-11-20T01:44:56;5.80;61.20
45785;DHT22;31489;51.404;5.474;2022-11-20T01:47:45;5.80;60.80
45785;DHT22;31489;51.404;5.474;2022-11-20T01:50:18;5.90;60.70
45785;DHT22;31489;51.404;5.474;2022-11-20T01:52:59;5.80;61.30
45785;DHT22;31489;51.404;5.474;2022-11-20T01:55:31;5.90;60.70
45785;DHT22;31489;51.404;5.474;2022-11-20T01:57:57;5.90;60.70
45785;DHT22;31489;51.404;5.474;2022-11-20T02:00:24;5.80;60.60
45785;DHT22;31489;51.404;5.474;2022-11-20T02:03:01;5.90;60.60
45785;DHT22;31489;51.404;5.474;2022-11-20T02:07:59;5.90;60.50
45785;DHT22;31489;51.404;5.474;2022-11-20T02:10:28;5.90;60.50
45785;DHT22;31489;51.404;5.474;2022-11-20T02:12:55;5.90;60.40
45785;DHT22;31489;51.404;5.474;2022-11-20T02:15:47;6.00;60.40
45785;DHT22;31489;51.404;5.474;2022-11-20T02:18:16;6.00;60.50
45785;DHT22;31489;51.404;5.474;2022-11-20T02:20:47;6.00;60.50
45785;DHT22;31489;51.404;5.474;2022-11-20T02:23:26;6.00;60.70
45785;DHT22;31489;51.404;5.474;2022-11-20T02:25:54;6.00;60.70
45785;DHT22;31489;51.404;5.474;2022-11-20T02:28:20;6.00;60.80
45785;DHT22;31489;51.404;5.474;2022-11-20T02:30:46;6.00;60.70
45785;DHT22;31489;51.404;5.474;2022-11-20T02:33:12;6.00;60.40
45785;DHT22;31489;51.404;5.474;2022-11-20T02:35:44;6.00;60.30
45785;DHT22;31489;51.404;5.474;2022-11-20T02:38:10;6.00;60.20
45785;DHT22;31489;51.404;5.474;2022-11-20T02:40:35;6.00;60.20
45785;DHT22;31489;51.404;5.474;2022-11-20T02:43:01;6.00;60.50
45785;DHT22;31489;51.404;5.474;2022-11-20T02:45:27;6.00;60.20
45785;DHT22;31489;51.404;5.474;2022-11-20T02:47:52;6.00;60.10
45785;DHT22;31489;51.404;5.474;2022-11-20T02:50:18;6.00;60.10
45785;DHT22;31489;51.404;5.474;2022-11-20T02:52:44;6.00;60.40
45785;DHT22;31489;51.404;5.474;2022-11-20T02:55:09;6.00;60.30
45785;DHT22;31489;51.404;5.474;2022-11-20T02:57:35;6.00;60.20
45785;DHT22;31489;51.404;5.474;2022-11-20T03:00:01;6.00;60.40
45785;DHT22;31489;51.404;5.474;2022-11-20T03:02:30;6.00;60.40
45785;DHT22;31489;51.404;5.474;2022-11-20T03:04:56;6.10;60.50
45785;DHT22;31489;51.404;5.474;2022-11-20T03:07:22;6.10;60.40
45785;DHT22;31489;51.404;5.474;2022-11-20T03:09:47;6.10;60.50
45785;DHT22;31489;51.404;5.474;2022-11-20T03:12:13;6.00;60.50
45785;DHT22;31489;51.404;5.474;2022-11-20T03:14:42;6.10;61.10
45785;DHT22;31489;51.404;5.474;2022-11-20T03:17:08;6.10;60.40
45785;DHT22;31489;51.404;5.474;2022-11-20T03:19:37;6.10;60.40
45785;DHT22;31489;51.404;5.474;2022-11-20T03:22:03;6.10;60.40
45785;DHT22;31489;51.404;5.474;2022-11-20T03:24:28;6.10;60.40
45785;DHT22;31489;51.404;5.474;2022-11-20T03:26:54;6.10;60.60
45785;DHT22;31489;51.404;5.474;2022-11-20T03:29:20;6.10;60.40
45785;DHT22;31489;51.404;5.474;2022-11-20T03:31:45;6.10;60.50
45785;DHT22;31489;51.404;5.474;2022-11-20T03:34:12;6.10;60.70
45785;DHT22;31489;51.404;5.474;2022-11-20T03:36:42;6.10;60.70
45785;DHT22;31489;51.404;5.474;2022-11-20T03:39:08;6.10;60.80
45785;DHT22;31489;51.404;5.474;2022-11-20T03:41:41;6.10;60.90
45785;DHT22;31489;51.404;5.474;2022-11-20T03:44:09;6.10;61.00
45785;DHT22;31489;51.404;5.474;2022-11-20T03:46:35;6.10;61.20
45785;DHT22;31489;51.404;5.474;2022-11-20T03:49:01;6.20;61.30
45785;DHT22;31489;51.404;5.474;2022-11-20T03:51:28;6.20;61.50
45785;DHT22;31489;51.404;5.474;2022-11-20T03:53:56;6.20;61.50
45785;DHT22;31489;51.404;5.474;2022-11-20T03:56:24;6.20;61.60
45785;DHT22;31489;51.404;5.474;2022-11-20T03:58:50;6.20;61.60
45785;DHT22;31489;51.404;5.474;2022-11-20T04:01:21;6.20;61.70
45785;DHT22;31489;51.404;5.474;2022-11-20T04:03:47;6.20;61.80
45785;DHT22;31489;51.404;5.474;2022-11-20T04:06:16;6.20;61.80
45785;DHT22;31489;51.404;5.474;2022-11-20T04:08:42;6.20;61.90
45785;DHT22;31489;51.404;5.474;2022-11-20T04:11:17;6.30;62.00
45785;DHT22;31489;51.404;5.474;2022-11-20T04:13:47;6.30;61.90
45785;DHT22;31489;51.404;5.474;2022-11-20T04:16:13;6.30;61.90
45785;DHT22;31489;51.404;5.474;2022-11-20T04:18:39;6.30;61.90
45785;DHT22;31489;51.404;5.474;2022-11-20T04:21:05;6.30;62.00
45785;DHT22;31489;51.404;5.474;2022-11-20T04:23:31;6.30;61.80
45785;DHT22;31489;51.404;5.474;2022-11-20T04:26:05;6.30;61.80
45785;DHT22;31489;51.404;5.474;2022-11-20T04:28:31;6.30;61.80
45785;DHT22;31489;51.404;5.474;2022-11-20T04:31:19;6.30;61.90
45785;DHT22;31489;51.404;5.474;2022-11-20T04:33:45;6.30;61.60
45785;DHT22;31489;51.404;5.474;2022-11-20T04:36:13;6.30;61.70
45785;DHT22;31489;51.404;5.474;2022-11-20T04:38:39;6.30;61.70
45785;DHT22;31489;51.404;5.474;2022-11-20T04:41:06;6.30;61.70
45785;DHT22;31489;51.404;5.474;2022-11-20T04:43:32;6.30;62.30
45785;DHT22;31489;51.404;5.474;2022-11-20T04:46:01;6.30;61.70
45785;DHT22;31489;51.404;5.474;2022-11-20T04:48:27;6.30;61.80
45785;DHT22;31489;51.404;5.474;2022-11-20T04:50:54;6.30;61.80
45785;DHT22;31489;51.404;5.474;2022-11-20T04:53:20;6.30;61.90
45785;DHT22;31489;51.404;5.474;2022-11-20T04:55:46;6.30;62.00
45785;DHT22;31489;51.404;5.474;2022-11-20T04:58:12;6.30;62.10
45785;DHT22;31489;51.404;5.474;2022-11-20T05:00:40;6.30;62.10
45785;DHT22;31489;51.404;5.474;2022-11-20T05:03:06;6.30;62.20
45785;DHT22;31489;51.404;5.474;2022-11-20T05:05:34;6.30;62.30
45785;DHT22;31489;51.404;5.474;2022-11-20T05:07:59;6.20;62.00
45785;DHT22;31489;51.404;5.474;2022-11-20T05:10:25;6.30;62.20
45785;DHT22;31489;51.404;5.474;2022-11-20T05:12:51;6.30;62.40
45785;DHT22;31489;51.404;5.474;2022-11-20T05:15:17;6.30;62.40
45785;DHT22;31489;51.404;5.474;2022-11-20T05:17:50;6.30;62.20
45785;DHT22;31489;51.404;5.474;2022-11-20T05:20:16;6.30;62.20
45785;DHT22;31489;51.404;5.474;2022-11-20T05:22:42;6.30;62.80
45785;DHT22;31489;51.404;5.474;2022-11-20T05:25:08;6.30;62.00
45785;DHT22;31489;51.404;5.474;2022-11-20T05:27:37;6.30;62.00
45785;DHT22;31489;51.404;5.474;2022-11-20T05:30:04;6.20;61.80
45785;DHT22;31489;51.404;5.474;2022-11-20T05:32:30;6.20;61.80
45785;DHT22;31489;51.404;5.474;2022-11-20T05:34:56;6.20;61.80
45785;DHT22;31489;51.404;5.474;2022-11-20T05:37:21;6.10;62.00
45785;DHT22;31489;51.404;5.474;2022-11-20T05:39:47;6.10;62.20
45785;DHT22;31489;51.404;5.474;2022-11-20T05:42:13;6.10;62.40
45785;DHT22;31489;51.404;5.474;2022-11-20T05:45:07;6.10;62.40
45785;DHT22;31489;51.404;5.474;2022-11-20T05:47:33;6.10;62.40
45785;DHT22;31489;51.404;5.474;2022-11-20T05:49:59;6.10;62.60
45785;DHT22;31489;51.404;5.474;2022-11-20T05:52:28;6.10;62.50
45785;DHT22;31489;51.404;5.474;2022-11-20T05:54:53;6.10;62.50
45785;DHT22;31489;51.404;5.474;2022-11-20T05:57:19;6.20;62.70
45785;DHT22;31489;51.404;5.474;2022-11-20T05:59:45;6.10;62.70
45785;DHT22;31489;51.404;5.474;2022-11-20T06:02:10;6.10;62.50
45785;DHT22;31489;51.404;5.474;2022-11-20T06:04:39;6.20;62.70
45785;DHT22;31489;51.404;5.474;2022-11-20T06:07:05;6.20;62.70
45785;DHT22;31489;51.404;5.474;2022-11-20T06:09:31;6.20;62.80
45785;DHT22;31489;51.404;5.474;2022-11-20T06:11:56;6.20;62.70
45785;DHT22;31489;51.404;5.474;2022-11-20T06:14:22;6.20;62.50
45785;DHT22;31489;51.404;5.474;2022-11-20T06:16:48;6.20;62.40
45785;DHT22;31489;51.404;5.474;2022-11-20T06:19:13;6.20;62.40
45785;DHT22;31489;51.404;5.474;2022-11-20T06:21:40;6.20;62.40
45785;DHT22;31489;51.404;5.474;2022-11-20T06:24:06;6.30;62.50
45785;DHT22;31489;51.404;5.474;2022-11-20T06:26:32;6.30;62.40
45785;DHT22;31489;51.404;5.474;2022-11-20T06:28:57;6.30;62.50
45785;DHT22;31489;51.404;5.474;2022-11-20T06:31:24;6.30;62.50
45785;DHT22;31489;51.404;5.474;2022-11-20T06:33:50;6.30;62.40
45785;DHT22;31489;51.404;5.474;2022-11-20T06:36:18;6.30;62.50
45785;DHT22;31489;51.404;5.474;2022-11-20T06:38:44;6.30;62.60
45785;DHT22;31489;51.404;5.474;2022-11-20T06:41:16;6.30;62.50
45785;DHT22;31489;51.404;5.474;2022-11-20T06:43:42;6.30;62.60
45785;DHT22;31489;51.404;5.474;2022-11-20T06:46:10;6.40;62.60
45785;DHT22;31489;51.404;5.474;2022-11-20T06:48:36;6.40;62.70
45785;DHT22;31489;51.404;5.474;2022-11-20T06:51:06;6.30;62.70
45785;DHT22;31489;51.404;5.474;2022-11-20T06:53:32;6.40;62.70
45785;DHT22;31489;51.404;5.474;2022-11-20T06:56:01;6.40;62.90
45785;DHT22;31489;51.404;5.474;2022-11-20T06:58:29;6.40;63.00
45785;DHT22;31489;51.404;5.474;2022-11-20T07:01:03;6.40;62.90
45785;DHT22;31489;51.404;5.474;2022-11-20T07:03:29;6.40;63.00
45785;DHT22;31489;51.404;5.474;2022-11-20T07:05:58;6.40;63.00
45785;DHT22;31489;51.404;5.474;2022-11-20T07:08:25;6.40;63.10
45785;DHT22;31489;51.404;5.474;2022-11-20T07:10:51;6.40;63.30
45785;DHT22;31489;51.404;5.474;2022-11-20T07:13:16;6.40;63.40
45785;DHT22;31489;51.404;5.474;2022-11-20T07:15:42;6.40;63.30
45785;DHT22;31489;51.404;5.474;2022-11-20T07:18:08;6.40;63.20
45785;DHT22;31489;51.404;5.474;2022-11-20T07:20:33;6.50;63.20
45785;DHT22;31489;51.404;5.474;2022-11-20T07:22:59;6.50;63.10
45785;DHT22;31489;51.404;5.474;2022-11-20T07:25:26;6.50;63.00
45785;DHT22;31489;51.404;5.474;2022-11-20T07:27:56;6.50;63.30
45785;DHT22;31489;51.404;5.474;2022-11-20T07:30:21;6.50;63.30
45785;DHT22;31489;51.404;5.474;2022-11-20T07:32:51;6.50;63.20
45785;DHT22;31489;51.404;5.474;2022-11-20T07:35:17;6.50;63.40
45785;DHT22;31489;51.404;5.474;2022-11-20T07:37:42;6.50;63.30
45785;DHT22;31489;51.404;5.474;2022-11-20T07:40:09;6.50;63.30
45785;DHT22;31489;51.404;5.474;2022-11-20T07:42:37;6.50;63.10
45785;DHT22;31489;51.404;5.474;2022-11-20T07:45:03;6.50;62.80
45785;DHT22;31489;51.404;5.474;2022-11-20T07:47:28;6.50;62.70
45785;DHT22;31489;51.404;5.474;2022-11-20T07:49:54;6.40;62.70
45785;DHT22;31489;51.404;5.474;2022-11-20T07:52:19;6.40;63.00
45785;DHT22;31489;51.404;5.474;2022-11-20T07:54:45;6.40;63.10
45785;DHT22;31489;51.404;5.474;2022-11-20T07:57:10;6.40;63.40
45785;DHT22;31489;51.404;5.474;2022-11-20T07:59:36;6.40;63.50
45785;DHT22;31489;51.404;5.474;2022-11-20T08:02:02;6.40;63.60
45785;DHT22;31489;51.404;5.474;2022-11-20T08:04:27;6.50;63.70
45785;DHT22;31489;51.404;5.474;2022-11-20T08:06:53;6.50;63.60
45785;DHT22;31489;51.404;5.474;2022-11-20T08:09:19;6.50;63.80
45785;DHT22;31489;51.404;5.474;2022-11-20T08:11:44;6.50;63.80
45785;DHT22;31489;51.404;5.474;2022-11-20T08:14:28;6.50;63.80
45785;DHT22;31489;51.404;5.474;2022-11-20T08:16:54;6.50;63.90
45785;DHT22;31489;51.404;5.474;2022-11-20T08:19:19;6.60;64.10
45785;DHT22;31489;51.404;5.474;2022-11-20T08:21:45;6.60;63.90
45785;DHT22;31489;51.404;5.474;2022-11-20T08:24:11;6.60;63.90
45785;DHT22;31489;51.404;5.474;2022-11-20T08:26:38;6.60;63.90
45785;DHT22;31489;51.404;5.474;2022-11-20T08:29:04;6.70;63.90
45785;DHT22;31489;51.404;5.474;2022-11-20T08:31:30;6.70;64.00
45785;DHT22;31489;51.404;5.474;2022-11-20T08:33:56;6.70;64.00
45785;DHT22;31489;51.404;5.474;2022-11-20T08:36:23;6.70;64.10
45785;DHT22;31489;51.404;5.474;2022-11-20T08:38:50;6.70;64.00
45785;DHT22;31489;51.404;5.474;2022-11-20T08:41:16;6.70;64.10
45785;DHT22;31489;51.404;5.474;2022-11-20T08:46:17;6.70;64.20
45785;DHT22;31489;51.404;5.474;2022-11-20T08:48:44;6.70;64.30
45785;DHT22;31489;51.404;5.474;2022-11-20T08:51:10;6.80;64.50
45785;DHT22;31489;51.404;5.474;2022-11-20T08:53:39;6.80;64.40
45785;DHT22;31489;51.404;5.474;2022-11-20T08:56:05;6.90;64.50
45785;DHT22;31489;51.404;5.474;2022-11-20T08:58:36;6.90;64.50
45785;DHT22;31489;51.404;5.474;2022-11-20T09:01:02;7.00;64.60
45785;DHT22;31489;51.404;5.474;2022-11-20T09:03:28;7.00;64.60
45785;DHT22;31489;51.404;5.474;2022-11-20T09:06:01;7.00;64.70
45785;DHT22;31489;51.404;5.474;2022-11-20T09:08:27;7.10;64.80
45785;DHT22;31489;51.404;5.474;2022-11-20T09:10:54;7.10;64.80
45785;DHT22;31489;51.404;5.474;2022-11-20T09:13:21;7.20;64.90
45785;DHT22;31489;51.404;5.474;2022-11-20T09:15:47;7.20;64.90
45785;DHT22;31489;51.404;5.474;2022-11-20T09:18:13;7.20;65.00
45785;DHT22;31489;51.404;5.474;2022-11-20T09:20:38;7.30;65.10
45785;DHT22;31489;51.404;5.474;2022-11-20T09:23:04;7.30;65.20
45785;DHT22;31489;51.404;5.474;2022-11-20T09:25:30;7.30;65.40
45785;DHT22;31489;51.404;5.474;2022-11-20T09:27:56;7.30;65.40
45785;DHT22;31489;51.404;5.474;2022-11-20T09:30:22;7.30;65.50
45785;DHT22;31489;51.404;5.474;2022-11-20T09:32:48;7.40;65.70
45785;DHT22;31489;51.404;5.474;2022-11-20T09:35:13;7.40;65.80
45785;DHT22;31489;51.404;5.474;2022-11-20T09:37:40;7.40;65.90
45785;DHT22;31489;51.404;5.474;2022-11-20T09:40:06;7.50;65.90
45785;DHT22;31489;51.404;5.474;2022-11-20T09:42:34;7.50;66.10
45785;DHT22;31489;51.404;5.474;2022-11-20T09:45:54;7.50;66.00
45785;DHT22;31489;51.404;5.474;2022-11-20T09:50:52;7.50;66.20
45785;DHT22;31489;51.404;5.474;2022-11-20T09:53:26;7.60;66.30
45785;DHT22;31489;51.404;5.474;2022-11-20T09:55:55;7.60;66.30
45785;DHT22;31489;51.404;5.474;2022-11-20T09:58:40;7.60;66.30
45785;DHT22;31489;51.404;5.474;2022-11-20T10:01:16;7.70;66.30
45785;DHT22;31489;51.404;5.474;2022-11-20T10:06:34;7.70;66.40
45785;DHT22;31489;51.404;5.474;2022-11-20T10:11:54;7.80;66.50
45785;DHT22;31489;51.404;5.474;2022-11-20T10:14:31;7.80;66.80
45785;DHT22;31489;51.404;5.474;2022-11-20T10:20:10;7.80;67.20
45785;DHT22;31489;51.404;5.474;2022-11-20T10:25:13;8.00;67.10
45785;DHT22;31489;51.404;5.474;2022-11-20T10:30:37;8.00;66.90
45785;DHT22;31489;51.404;5.474;2022-11-20T10:35:49;8.20;67.20
45785;DHT22;31489;51.404;5.474;2022-11-20T10:38:45;8.20;67.20
45785;DHT22;31489;51.404;5.474;2022-11-20T10:41:28;8.30;67.40
45785;DHT22;31489;51.404;5.474;2022-11-20T10:44:15;8.30;67.20
45785;DHT22;31489;51.404;5.474;2022-11-20T10:47:01;8.40;67.20
45785;DHT22;31489;51.404;5.474;2022-11-20T10:49:26;8.40;67.60
45785;DHT22;31489;51.404;5.474;2022-11-20T10:57:19;8.50;67.10
45785;DHT22;31489;51.404;5.474;2022-11-20T10:59:59;8.50;67.20
45785;DHT22;31489;51.404;5.474;2022-11-20T11:02:48;8.50;67.10
45785;DHT22;31489;51.404;5.474;2022-11-20T11:05:27;8.60;67.10
45785;DHT22;31489;51.404;5.474;2022-11-20T11:07:57;8.60;66.90
45785;DHT22;31489;51.404;5.474;2022-11-20T11:10:41;8.60;67.00
45785;DHT22;31489;51.404;5.474;2022-11-20T11:13:23;8.60;67.10
45785;DHT22;31489;51.404;5.474;2022-11-20T11:15:49;8.60;67.70
45785;DHT22;31489;51.404;5.474;2022-11-20T11:18:32;8.60;67.10
45785;DHT22;31489;51.404;5.474;2022-11-20T11:21:00;8.60;67.20
45785;DHT22;31489;51.404;5.474;2022-11-20T11:23:42;8.60;67.80
45785;DHT22;31489;51.404;5.474;2022-11-20T11:26:22;8.60;67.50
45785;DHT22;31489;51.404;5.474;2022-11-20T11:28:59;8.60;67.60
45785;DHT22;31489;51.404;5.474;2022-11-20T11:31:27;8.60;68.20
45785;DHT22;31489;51.404;5.474;2022-11-20T11:34:07;8.70;67.70
45785;DHT22;31489;51.404;5.474;2022-11-20T11:36:34;8.70;68.00
45785;DHT22;31489;51.404;5.474;2022-11-20T11:39:02;8.70;67.90
45785;DHT22;31489;51.404;5.474;2022-11-20T11:41:33;8.70;68.00
45785;DHT22;31489;51.404;5.474;2022-11-20T11:44:17;8.70;68.00
45785;DHT22;31489;51.404;5.474;2022-11-20T11:47:04;8.80;68.00
45785;DHT22;31489;51.404;5.474;2022-11-20T11:49:30;8.80;67.90
45785;DHT22;31489;51.404;5.474;2022-11-20T11:52:12;8.80;68.00
45785;DHT22;31489;51.404;5.474;2022-11-20T11:55:01;8.80;68.10
45785;DHT22;31489;51.404;5.474;2022-11-20T11:57:49;8.90;68.30
45785;DHT22;31489;51.404;5.474;2022-11-20T12:00:20;8.80;68.30
45785;DHT22;31489;51.404;5.474;2022-11-20T12:05:40;8.90;68.20
45785;DHT22;31489;51.404;5.474;2022-11-20T12:13:55;8.90;68.60
45785;DHT22;31489;51.404;5.474;2022-11-20T12:16:24;8.90;68.60
45785;DHT22;31489;51.404;5.474;2022-11-20T12:18:51;8.90;68.70
45785;DHT22;31489;51.404;5.474;2022-11-20T12:30:17;8.90;69.30
45785;DHT22;31489;51.404;5.474;2022-11-20T12:47:28;9.20;69.50
45785;DHT22;31489;51.404;5.474;2022-11-20T12:53:08;9.20;69.80
45785;DHT22;31489;51.404;5.474;2022-11-20T12:58:27;9.30;69.70
45785;DHT22;31489;51.404;5.474;2022-11-20T13:03:57;9.40;69.80
45785;DHT22;31489;51.404;5.474;2022-11-20T13:06:26;9.40;69.80
45785;DHT22;31489;51.404;5.474;2022-11-20T13:08:56;9.40;69.90
45785;DHT22;31489;51.404;5.474;2022-11-20T13:11:32;9.50;70.00
45785;DHT22;31489;51.404;5.474;2022-11-20T13:16:58;9.60;70.00
45785;DHT22;31489;51.404;5.474;2022-11-20T13:19:24;9.60;69.80
45785;DHT22;31489;51.404;5.474;2022-11-20T13:21:50;9.60;69.60
45785;DHT22;31489;51.404;5.474;2022-11-20T13:26:45;9.70;69.90
45785;DHT22;31489;51.404;5.474;2022-11-20T13:29:16;9.70;69.90
45785;DHT22;31489;51.404;5.474;2022-11-20T13:31:47;9.70;70.00
45785;DHT22;31489;51.404;5.474;2022-11-20T13:34:26;9.80;70.20
45785;DHT22;31489;51.404;5.474;2022-11-20T13:36:54;9.80;70.80
45785;DHT22;31489;51.404;5.474;2022-11-20T13:39:26;9.80;70.10
45785;DHT22;31489;51.404;5.474;2022-11-20T13:42:02;9.90;70.30
45785;DHT22;31489;51.404;5.474;2022-11-20T13:44:38;9.90;70.40
45785;DHT22;31489;51.404;5.474;2022-11-20T13:47:17;10.00;70.40
45785;DHT22;31489;51.404;5.474;2022-11-20T13:49:45;10.00;70.30
45785;DHT22;31489;51.404;5.474;2022-11-20T13:52:41;10.00;70.10
45785;DHT22;31489;51.404;5.474;2022-11-20T13:57:52;10.00;70.30
45785;DHT22;31489;51.404;5.474;2022-11-20T14:00:23;10.00;70.30
45785;DHT22;31489;51.404;5.474;2022-11-20T14:05:34;10.10;70.50
45785;DHT22;31489;51.404;5.474;2022-11-20T14:08:03;10.10;70.30
45785;DHT22;31489;51.404;5.474;2022-11-20T14:10:30;10.10;70.40
45785;DHT22;31489;51.404;5.474;2022-11-20T14:12:56;10.10;70.60
45785;DHT22;31489;51.404;5.474;2022-11-20T14:15:31;10.10;70.50
45785;DHT22;31489;51.404;5.474;2022-11-20T14:17:58;10.10;70.90
45785;DHT22;31489;51.404;5.474;2022-11-20T14:20:26;10.10;70.90
45785;DHT22;31489;51.404;5.474;2022-11-20T14:22:54;10.10;71.20
45785;DHT22;31489;51.404;5.474;2022-11-20T14:25:22;10.10;71.20
45785;DHT22;31489;51.404;5.474;2022-11-20T14:27:59;10.10;71.20
45785;DHT22;31489;51.404;5.474;2022-11-20T14:30:27;10.10;71.70
45785;DHT22;31489;51.404;5.474;2022-11-20T14:32:56;10.20;71.40
45785;DHT22;31489;51.404;5.474;2022-11-20T14:35:29;10.10;71.50
45785;DHT22;31489;51.404;5.474;2022-11-20T14:37:56;10.10;71.90
45785;DHT22;31489;51.404;5.474;2022-11-20T14:40:30;10.10;72.00
45785;DHT22;31489;51.404;5.474;2022-11-20T14:42:58;10.10;72.30
45785;DHT22;31489;51.404;5.474;2022-11-20T14:45:25;10.10;72.10
45785;DHT22;31489;51.404;5.474;2022-11-20T14:47:56;10.10;72.20
45785;DHT22;31489;51.404;5.474;2022-11-20T14:50:28;10.10;72.60
45785;DHT22;31489;51.404;5.474;2022-11-20T14:53:02;10.10;72.80
45785;DHT22;31489;51.404;5.474;2022-11-20T14:55:32;10.10;72.90
45785;DHT22;31489;51.404;5.474;2022-11-20T14:58:18;10.10;72.90
45785;DHT22;31489;51.404;5.474;2022-11-20T15:00:58;10.10;73.20
45785;DHT22;31489;51.404;5.474;2022-11-20T15:03:35;10.10;73.30
45785;DHT22;31489;51.404;5.474;2022-11-20T15:06:01;10.10;73.40
45785;DHT22;31489;51.404;5.474;2022-11-20T15:08:27;10.10;73.20
45785;DHT22;31489;51.404;5.474;2022-11-20T15:10:54;10.20;73.30
45785;DHT22;31489;51.404;5.474;2022-11-20T15:13:30;10.10;73.20
45785;DHT22;31489;51.404;5.474;2022-11-20T15:15:59;10.20;73.80
45785;DHT22;31489;51.404;5.474;2022-11-20T15:18:36;10.20;73.30
45785;DHT22;31489;51.404;5.474;2022-11-20T15:21:06;10.20;73.70
45785;DHT22;31489;51.404;5.474;2022-11-20T15:23:34;10.20;73.40
45785;DHT22;31489;51.404;5.474;2022-11-20T15:26:00;10.20;73.50
45785;DHT22;31489;51.404;5.474;2022-11-20T15:28:35;10.20;73.50
45785;DHT22;31489;51.404;5.474;2022-11-20T15:31:03;10.20;73.90
45785;DHT22;31489;51.404;5.474;2022-11-20T15:33:30;10.20;73.70
45785;DHT22;31489;51.404;5.474;2022-11-20T15:35:59;10.20;73.90
45785;DHT22;31489;51.404;5.474;2022-11-20T15:38:25;10.20;74.10
45785;DHT22;31489;51.404;5.474;2022-11-20T15:40:51;10.20;74.00
45785;DHT22;31489;51.404;5.474;2022-11-20T15:43:17;10.20;74.00
45785;DHT22;31489;51.404;5.474;2022-11-20T15:45:48;10.20;74.00
45785;DHT22;31489;51.404;5.474;2022-11-20T15:48:16;10.20;74.40
45785;DHT22;31489;51.404;5.474;2022-11-20T15:53:27;10.30;74.60
45785;DHT22;31489;51.404;5.474;2022-11-20T15:55:53;10.30;74.50
45785;DHT22;31489;51.404;5.474;2022-11-20T15:58:18;10.30;74.60
45785;DHT22;31489;51.404;5.474;2022-11-20T16:00:44;10.30;74.80
45785;DHT22;31489;51.404;5.474;2022-11-20T16:03:14;10.30;74.70
45785;DHT22;31489;51.404;5.474;2022-11-20T16:05:40;10.30;75.00
45785;DHT22;31489;51.404;5.474;2022-11-20T16:08:06;10.30;74.90
45785;DHT22;31489;51.404;5.474;2022-11-20T16:10:32;10.40;75.00
45785;DHT22;31489;51.404;5.474;2022-11-20T16:12:58;10.40;75.10
45785;DHT22;31489;51.404;5.474;2022-11-20T16:15:51;10.40;75.20
45785;DHT22;31489;51.404;5.474;2022-11-20T16:18:19;10.40;75.40
45785;DHT22;31489;51.404;5.474;2022-11-20T16:20:47;10.50;75.30
45785;DHT22;31489;51.404;5.474;2022-11-20T16:23:13;10.50;75.40
45785;DHT22;31489;51.404;5.474;2022-11-20T16:25:39;10.50;75.40
45785;DHT22;31489;51.404;5.474;2022-11-20T16:28:04;10.50;75.50
45785;DHT22;31489;51.404;5.474;2022-11-20T16:30:34;10.50;75.50
45785;DHT22;31489;51.404;5.474;2022-11-20T16:33:00;10.50;75.60
45785;DHT22;31489;51.404;5.474;2022-11-20T16:35:27;10.60;75.50
45785;DHT22;31489;51.404;5.474;2022-11-20T16:37:56;10.50;75.50
45785;DHT22;31489;51.404;5.474;2022-11-20T16:40:22;10.60;75.60
45785;DHT22;31489;51.404;5.474;2022-11-20T16:42:51;10.60;75.60
45785;DHT22;31489;51.404;5.474;2022-11-20T16:45:16;10.60;75.70
45785;DHT22;31489;51.404;5.474;2022-11-20T16:47:42;10.60;75.60
45785;DHT22;31489;51.404;5.474;2022-11-20T16:50:08;10.60;75.70
45785;DHT22;31489;51.404;5.474;2022-11-20T16:52:34;10.60;75.70
45785;DHT22;31489;51.404;5.474;2022-11-20T16:55:02;10.70;75.80
45785;DHT22;31489;51.404;5.474;2022-11-20T16:57:29;10.70;75.90
45785;DHT22;31489;51.404;5.474;2022-11-20T16:59:58;10.70;76.00
45785;DHT22;31489;51.404;5.474;2022-11-20T17:02:27;10.70;76.10
45785;DHT22;31489;51.404;5.474;2022-11-20T17:04:54;10.70;76.30
45785;DHT22;31489;51.404;5.474;2022-11-20T17:07:20;10.70;76.30
45785;DHT22;31489;51.404;5.474;2022-11-20T17:09:46;10.70;76.40
45785;DHT22;31489;51.404;5.474;2022-11-20T17:12:12;10.70;76.50
45785;DHT22;31489;51.404;5.474;2022-11-20T17:14:38;10.60;76.50
45785;DHT22;31489;51.404;5.474;2022-11-20T17:17:04;10.60;76.60
45785;DHT22;31489;51.404;5.474;2022-11-20T17:19:29;10.70;76.80